Chronik & Geschichte

Boeing Stearman am Flugplatz Konstanz

Mit seiner 107-jährigen Geschichte ist Konstanz der älteste Verkehrslandeplatz Deutschlands. Lesen Sie unsere Festschrift zum 100-jährigen Platzjubiläum oder entdecken Sie die ausführliche Flugplatzchronik auf der Website der Initiative PRO Flugplatz Konstanz.

Live am Platz

Die Bilder unserer Webcams werden alle 5 Minuten aktualisiert.

Sonnenaufgang:

07:04 UTC / 08:04 Lokal

Sonnenuntergang:

15:34 UTC / 16:34 Lokal

METAR (16.12.2018 05:50 UTC):

EDNY 160550Z VRB02KT 2400 -SN FEW006 SCT009 OVC021 M03/M04 Q1013
IFR

TAF (16.12.2018 05:00 UTC):

TAF EDNY 160500Z 1606/1706 VRB03KT 4000 -SN BKN015 TEMPO 1606/1608 1200 SN BKN004 PROB30 TEMPO 1608/1611 -FZDZ BECMG 1608/1610 6000 BKN008 BECMG 1618/1620 4000 BR BECMG 1622/1624 2000 BKN004

Alle Angaben unverbindlich und ohne Gewähr. Zeiten genähert.

Für den Verkehrslandeplatz Konstanz werden keine offiziellen Wetterinformationen ausgegeben. Daher werden zur Orientierung Daten des nahegelegenen Flughafens Friedrichshafen dargestellt.

Flugwetterdaten zur Verfügung gestellt von wippich.aero.